sensor_id;sensor_type;location;lat;lon;timestamp;P1;durP1;ratioP1;P2;durP2;ratioP2
12681;SDS011;6405;59.208;18.216;2023-02-26T00:00:43;3.63;;;1.30;;
12681;SDS011;6405;59.208;18.216;2023-02-26T00:03:09;6.53;;;1.20;;
12681;SDS011;6405;59.208;18.216;2023-02-26T00:05:34;2.37;;;1.13;;
12681;SDS011;6405;59.208;18.216;2023-02-26T00:08:00;3.43;;;0.87;;
12681;SDS011;6405;59.208;18.216;2023-02-26T00:10:26;2.50;;;0.63;;
12681;SDS011;6405;59.208;18.216;2023-02-26T00:12:51;2.03;;;0.93;;
12681;SDS011;6405;59.208;18.216;2023-02-26T00:15:17;2.87;;;1.27;;
12681;SDS011;6405;59.208;18.216;2023-02-26T00:20:18;1.77;;;0.80;;
12681;SDS011;6405;59.208;18.216;2023-02-26T00:22:44;1.37;;;1.00;;
12681;SDS011;6405;59.208;18.216;2023-02-26T00:25:10;2.00;;;1.17;;
12681;SDS011;6405;59.208;18.216;2023-02-26T00:27:36;2.67;;;1.07;;
12681;SDS011;6405;59.208;18.216;2023-02-26T00:30:04;1.10;;;0.87;;
12681;SDS011;6405;59.208;18.216;2023-02-26T00:32:31;2.17;;;1.20;;
12681;SDS011;6405;59.208;18.216;2023-02-26T00:34:57;1.87;;;0.70;;
12681;SDS011;6405;59.208;18.216;2023-02-26T00:39:58;1.23;;;0.50;;
12681;SDS011;6405;59.208;18.216;2023-02-26T00:42:32;4.83;;;1.00;;
12681;SDS011;6405;59.208;18.216;2023-02-26T00:44:59;0.70;;;0.50;;
12681;SDS011;6405;59.208;18.216;2023-02-26T00:47:31;2.07;;;0.83;;
12681;SDS011;6405;59.208;18.216;2023-02-26T00:50:20;2.60;;;0.70;;
12681;SDS011;6405;59.208;18.216;2023-02-26T00:53:06;4.90;;;1.07;;
12681;SDS011;6405;59.208;18.216;2023-02-26T00:55:59;3.27;;;0.90;;
12681;SDS011;6405;59.208;18.216;2023-02-26T00:58:25;3.17;;;0.90;;
12681;SDS011;6405;59.208;18.216;2023-02-26T01:00:50;0.97;;;0.50;;
12681;SDS011;6405;59.208;18.216;2023-02-26T01:03:16;5.10;;;0.77;;
12681;SDS011;6405;59.208;18.216;2023-02-26T01:05:42;1.67;;;0.70;;
12681;SDS011;6405;59.208;18.216;2023-02-26T01:08:17;1.70;;;0.80;;
12681;SDS011;6405;59.208;18.216;2023-02-26T01:10:47;1.57;;;0.70;;
12681;SDS011;6405;59.208;18.216;2023-02-26T01:13:13;2.30;;;0.73;;
12681;SDS011;6405;59.208;18.216;2023-02-26T01:15:39;6.33;;;1.10;;
12681;SDS011;6405;59.208;18.216;2023-02-26T01:18:15;0.93;;;0.57;;
12681;SDS011;6405;59.208;18.216;2023-02-26T01:20:50;3.50;;;0.60;;
12681;SDS011;6405;59.208;18.216;2023-02-26T01:23:24;3.20;;;0.80;;
12681;SDS011;6405;59.208;18.216;2023-02-26T01:28:22;1.60;;;0.73;;
12681;SDS011;6405;59.208;18.216;2023-02-26T01:30:52;3.13;;;0.77;;
12681;SDS011;6405;59.208;18.216;2023-02-26T01:33:31;2.17;;;0.80;;
12681;SDS011;6405;59.208;18.216;2023-02-26T01:36:08;2.53;;;0.70;;
12681;SDS011;6405;59.208;18.216;2023-02-26T01:38:41;2.03;;;0.80;;
12681;SDS011;6405;59.208;18.216;2023-02-26T01:47:05;1.73;;;0.70;;
12681;SDS011;6405;59.208;18.216;2023-02-26T01:49:39;2.97;;;0.87;;
12681;SDS011;6405;59.208;18.216;2023-02-26T01:52:06;2.93;;;1.00;;
12681;SDS011;6405;59.208;18.216;2023-02-26T01:54:51;3.40;;;0.90;;
12681;SDS011;6405;59.208;18.216;2023-02-26T01:57:17;1.00;;;0.70;;
12681;SDS011;6405;59.208;18.216;2023-02-26T01:59:46;3.23;;;0.63;;
12681;SDS011;6405;59.208;18.216;2023-02-26T02:02:18;2.77;;;0.97;;
12681;SDS011;6405;59.208;18.216;2023-02-26T02:04:46;3.00;;;0.83;;
12681;SDS011;6405;59.208;18.216;2023-02-26T02:07:13;2.57;;;0.80;;
12681;SDS011;6405;59.208;18.216;2023-02-26T02:09:40;1.63;;;0.80;;
12681;SDS011;6405;59.208;18.216;2023-02-26T02:15:04;3.60;;;0.87;;
12681;SDS011;6405;59.208;18.216;2023-02-26T02:20:42;1.27;;;0.63;;
12681;SDS011;6405;59.208;18.216;2023-02-26T02:26:04;3.53;;;0.67;;
12681;SDS011;6405;59.208;18.216;2023-02-26T02:31:30;1.53;;;0.90;;
12681;SDS011;6405;59.208;18.216;2023-02-26T02:34:02;2.83;;;0.93;;
12681;SDS011;6405;59.208;18.216;2023-02-26T02:36:55;1.00;;;0.60;;
12681;SDS011;6405;59.208;18.216;2023-02-26T02:39:26;3.13;;;1.00;;
12681;SDS011;6405;59.208;18.216;2023-02-26T02:42:23;1.60;;;0.90;;
12681;SDS011;6405;59.208;18.216;2023-02-26T02:45:04;0.93;;;0.63;;
12681;SDS011;6405;59.208;18.216;2023-02-26T02:47:35;1.23;;;0.60;;
12681;SDS011;6405;59.208;18.216;2023-02-26T02:55:26;1.57;;;0.60;;
12681;SDS011;6405;59.208;18.216;2023-02-26T02:57:57;7.40;;;0.80;;
12681;SDS011;6405;59.208;18.216;2023-02-26T03:00:30;0.63;;;0.40;;
12681;SDS011;6405;59.208;18.216;2023-02-26T03:05:50;1.83;;;0.70;;
12681;SDS011;6405;59.208;18.216;2023-02-26T03:08:17;2.43;;;0.60;;
12681;SDS011;6405;59.208;18.216;2023-02-26T03:10:46;2.70;;;0.90;;
12681;SDS011;6405;59.208;18.216;2023-02-26T03:13:21;2.53;;;0.83;;
12681;SDS011;6405;59.208;18.216;2023-02-26T03:16:15;2.83;;;1.00;;
12681;SDS011;6405;59.208;18.216;2023-02-26T03:19:07;3.53;;;0.60;;
12681;SDS011;6405;59.208;18.216;2023-02-26T03:21:45;4.37;;;0.73;;
12681;SDS011;6405;59.208;18.216;2023-02-26T03:24:49;4.13;;;0.80;;
12681;SDS011;6405;59.208;18.216;2023-02-26T03:27:21;2.00;;;0.47;;
12681;SDS011;6405;59.208;18.216;2023-02-26T03:30:08;3.43;;;0.97;;
12681;SDS011;6405;59.208;18.216;2023-02-26T03:38:06;0.60;;;0.40;;
12681;SDS011;6405;59.208;18.216;2023-02-26T03:40:37;3.60;;;0.70;;
12681;SDS011;6405;59.208;18.216;2023-02-26T03:43:17;4.63;;;1.23;;
12681;SDS011;6405;59.208;18.216;2023-02-26T03:45:49;2.93;;;0.90;;
12681;SDS011;6405;59.208;18.216;2023-02-26T03:48:19;2.53;;;0.80;;
12681;SDS011;6405;59.208;18.216;2023-02-26T03:50:52;2.33;;;0.70;;
12681;SDS011;6405;59.208;18.216;2023-02-26T03:53:26;1.30;;;0.60;;
12681;SDS011;6405;59.208;18.216;2023-02-26T03:56:02;2.63;;;0.93;;
12681;SDS011;6405;59.208;18.216;2023-02-26T03:58:35;2.33;;;0.70;;
12681;SDS011;6405;59.208;18.216;2023-02-26T04:01:02;2.97;;;0.70;;
12681;SDS011;6405;59.208;18.216;2023-02-26T04:03:33;2.30;;;0.60;;
12681;SDS011;6405;59.208;18.216;2023-02-26T04:06:04;2.10;;;0.53;;
12681;SDS011;6405;59.208;18.216;2023-02-26T04:08:30;1.33;;;0.70;;
12681;SDS011;6405;59.208;18.216;2023-02-26T04:10:57;1.77;;;0.77;;
12681;SDS011;6405;59.208;18.216;2023-02-26T04:13:27;2.87;;;0.60;;
12681;SDS011;6405;59.208;18.216;2023-02-26T04:15:53;2.07;;;0.40;;
12681;SDS011;6405;59.208;18.216;2023-02-26T04:18:18;0.73;;;0.53;;
12681;SDS011;6405;59.208;18.216;2023-02-26T04:20:44;0.73;;;0.53;;
12681;SDS011;6405;59.208;18.216;2023-02-26T04:23:10;0.70;;;0.30;;
12681;SDS011;6405;59.208;18.216;2023-02-26T04:25:35;2.43;;;0.70;;
12681;SDS011;6405;59.208;18.216;2023-02-26T04:28:01;4.13;;;0.60;;
12681;SDS011;6405;59.208;18.216;2023-02-26T04:30:27;1.63;;;0.67;;
12681;SDS011;6405;59.208;18.216;2023-02-26T04:32:52;1.60;;;0.63;;
12681;SDS011;6405;59.208;18.216;2023-02-26T04:35:18;2.83;;;0.70;;
12681;SDS011;6405;59.208;18.216;2023-02-26T04:37:43;1.67;;;0.80;;
12681;SDS011;6405;59.208;18.216;2023-02-26T04:40:09;2.10;;;0.73;;
12681;SDS011;6405;59.208;18.216;2023-02-26T04:42:35;1.27;;;0.40;;
12681;SDS011;6405;59.208;18.216;2023-02-26T04:45:01;4.53;;;0.83;;
12681;SDS011;6405;59.208;18.216;2023-02-26T04:47:27;1.40;;;0.37;;
12681;SDS011;6405;59.208;18.216;2023-02-26T04:49:53;1.63;;;0.73;;
12681;SDS011;6405;59.208;18.216;2023-02-26T04:52:19;2.27;;;0.70;;
12681;SDS011;6405;59.208;18.216;2023-02-26T04:54:44;3.83;;;0.73;;
12681;SDS011;6405;59.208;18.216;2023-02-26T04:57:10;1.67;;;0.50;;
12681;SDS011;6405;59.208;18.216;2023-02-26T04:59:35;1.90;;;0.53;;
12681;SDS011;6405;59.208;18.216;2023-02-26T05:02:02;4.60;;;0.60;;
12681;SDS011;6405;59.208;18.216;2023-02-26T05:04:28;1.47;;;0.87;;
12681;SDS011;6405;59.208;18.216;2023-02-26T05:06:54;1.33;;;0.50;;
12681;SDS011;6405;59.208;18.216;2023-02-26T05:09:20;2.40;;;0.60;;
12681;SDS011;6405;59.208;18.216;2023-02-26T05:11:45;2.57;;;0.60;;
12681;SDS011;6405;59.208;18.216;2023-02-26T05:14:12;3.20;;;0.90;;
12681;SDS011;6405;59.208;18.216;2023-02-26T05:16:38;0.93;;;0.40;;
12681;SDS011;6405;59.208;18.216;2023-02-26T05:19:04;2.07;;;0.53;;
12681;SDS011;6405;59.208;18.216;2023-02-26T05:21:30;2.87;;;1.00;;
12681;SDS011;6405;59.208;18.216;2023-02-26T05:23:55;2.13;;;0.70;;
12681;SDS011;6405;59.208;18.216;2023-02-26T05:26:21;1.67;;;0.50;;
12681;SDS011;6405;59.208;18.216;2023-02-26T05:28:47;2.63;;;0.97;;
12681;SDS011;6405;59.208;18.216;2023-02-26T05:31:13;1.77;;;0.60;;
12681;SDS011;6405;59.208;18.216;2023-02-26T05:33:39;2.90;;;0.80;;
12681;SDS011;6405;59.208;18.216;2023-02-26T05:36:05;1.20;;;0.53;;
12681;SDS011;6405;59.208;18.216;2023-02-26T05:38:31;2.63;;;1.03;;
12681;SDS011;6405;59.208;18.216;2023-02-26T05:40:57;2.60;;;0.30;;
12681;SDS011;6405;59.208;18.216;2023-02-26T05:43:24;2.10;;;0.43;;
12681;SDS011;6405;59.208;18.216;2023-02-26T05:45:50;1.70;;;0.60;;
12681;SDS011;6405;59.208;18.216;2023-02-26T05:48:16;2.57;;;0.40;;
12681;SDS011;6405;59.208;18.216;2023-02-26T05:50:42;2.40;;;0.70;;
12681;SDS011;6405;59.208;18.216;2023-02-26T05:53:08;4.17;;;0.67;;
12681;SDS011;6405;59.208;18.216;2023-02-26T05:55:33;1.03;;;0.50;;
12681;SDS011;6405;59.208;18.216;2023-02-26T05:57:59;1.40;;;0.57;;
12681;SDS011;6405;59.208;18.216;2023-02-26T06:00:25;1.87;;;0.63;;
12681;SDS011;6405;59.208;18.216;2023-02-26T06:02:51;1.20;;;0.60;;
12681;SDS011;6405;59.208;18.216;2023-02-26T06:05:17;1.80;;;0.60;;
12681;SDS011;6405;59.208;18.216;2023-02-26T06:07:42;3.00;;;1.00;;
12681;SDS011;6405;59.208;18.216;2023-02-26T06:10:08;1.00;;;0.57;;
12681;SDS011;6405;59.208;18.216;2023-02-26T06:12:35;2.33;;;0.60;;
12681;SDS011;6405;59.208;18.216;2023-02-26T06:15:01;2.43;;;0.70;;
12681;SDS011;6405;59.208;18.216;2023-02-26T06:17:28;4.17;;;0.70;;
12681;SDS011;6405;59.208;18.216;2023-02-26T06:19:54;2.10;;;0.40;;
12681;SDS011;6405;59.208;18.216;2023-02-26T06:22:19;1.43;;;0.70;;
12681;SDS011;6405;59.208;18.216;2023-02-26T06:24:45;0.97;;;0.40;;
12681;SDS011;6405;59.208;18.216;2023-02-26T06:27:11;2.57;;;0.50;;
12681;SDS011;6405;59.208;18.216;2023-02-26T06:29:36;0.63;;;0.50;;
12681;SDS011;6405;59.208;18.216;2023-02-26T06:32:03;1.90;;;0.40;;
12681;SDS011;6405;59.208;18.216;2023-02-26T06:34:29;2.33;;;0.67;;
12681;SDS011;6405;59.208;18.216;2023-02-26T06:36:55;1.63;;;0.60;;
12681;SDS011;6405;59.208;18.216;2023-02-26T06:39:21;0.60;;;0.40;;
12681;SDS011;6405;59.208;18.216;2023-02-26T06:41:47;1.80;;;0.47;;
12681;SDS011;6405;59.208;18.216;2023-02-26T06:44:12;0.77;;;0.33;;
12681;SDS011;6405;59.208;18.216;2023-02-26T06:46:38;1.87;;;0.77;;
12681;SDS011;6405;59.208;18.216;2023-02-26T06:49:04;4.83;;;0.57;;
12681;SDS011;6405;59.208;18.216;2023-02-26T06:51:29;1.23;;;0.40;;
12681;SDS011;6405;59.208;18.216;2023-02-26T06:53:55;0.87;;;0.60;;
12681;SDS011;6405;59.208;18.216;2023-02-26T06:56:21;3.07;;;1.07;;
12681;SDS011;6405;59.208;18.216;2023-02-26T06:58:47;1.23;;;0.90;;
12681;SDS011;6405;59.208;18.216;2023-02-26T07:01:13;2.37;;;1.00;;
12681;SDS011;6405;59.208;18.216;2023-02-26T07:03:39;2.83;;;0.60;;
12681;SDS011;6405;59.208;18.216;2023-02-26T07:06:05;3.47;;;0.93;;
12681;SDS011;6405;59.208;18.216;2023-02-26T07:08:32;2.03;;;0.70;;
12681;SDS011;6405;59.208;18.216;2023-02-26T07:10:58;1.80;;;0.80;;
12681;SDS011;6405;59.208;18.216;2023-02-26T07:13:24;3.00;;;0.60;;
12681;SDS011;6405;59.208;18.216;2023-02-26T07:15:49;1.93;;;0.60;;
12681;SDS011;6405;59.208;18.216;2023-02-26T07:18:15;2.73;;;0.60;;
12681;SDS011;6405;59.208;18.216;2023-02-26T07:20:41;1.53;;;0.50;;
12681;SDS011;6405;59.208;18.216;2023-02-26T07:23:07;1.63;;;0.60;;
12681;SDS011;6405;59.208;18.216;2023-02-26T07:25:33;1.07;;;0.60;;
12681;SDS011;6405;59.208;18.216;2023-02-26T07:27:59;1.87;;;0.60;;
12681;SDS011;6405;59.208;18.216;2023-02-26T07:30:24;2.90;;;0.60;;
12681;SDS011;6405;59.208;18.216;2023-02-26T07:32:50;3.10;;;1.07;;
12681;SDS011;6405;59.208;18.216;2023-02-26T07:35:16;0.67;;;0.50;;
12681;SDS011;6405;59.208;18.216;2023-02-26T07:37:42;2.40;;;0.60;;
12681;SDS011;6405;59.208;18.216;2023-02-26T07:40:08;2.93;;;0.57;;
12681;SDS011;6405;59.208;18.216;2023-02-26T07:42:34;1.77;;;0.90;;
12681;SDS011;6405;59.208;18.216;2023-02-26T07:45:00;1.53;;;0.73;;
12681;SDS011;6405;59.208;18.216;2023-02-26T07:47:26;1.57;;;0.50;;
12681;SDS011;6405;59.208;18.216;2023-02-26T07:49:52;2.17;;;1.17;;
12681;SDS011;6405;59.208;18.216;2023-02-26T07:52:17;0.73;;;0.50;;
12681;SDS011;6405;59.208;18.216;2023-02-26T07:54:43;2.93;;;0.60;;
12681;SDS011;6405;59.208;18.216;2023-02-26T07:57:09;3.27;;;0.67;;
12681;SDS011;6405;59.208;18.216;2023-02-26T07:59:34;0.40;;;0.30;;
12681;SDS011;6405;59.208;18.216;2023-02-26T08:02:00;1.63;;;0.53;;
12681;SDS011;6405;59.208;18.216;2023-02-26T08:04:26;2.40;;;0.93;;
12681;SDS011;6405;59.208;18.216;2023-02-26T08:06:51;0.67;;;0.60;;
12681;SDS011;6405;59.208;18.216;2023-02-26T08:09:19;2.57;;;0.70;;
12681;SDS011;6405;59.208;18.216;2023-02-26T08:11:45;3.37;;;0.60;;
12681;SDS011;6405;59.208;18.216;2023-02-26T08:14:11;2.47;;;0.70;;
12681;SDS011;6405;59.208;18.216;2023-02-26T08:16:37;1.43;;;0.60;;
12681;SDS011;6405;59.208;18.216;2023-02-26T08:19:03;4.00;;;1.13;;
12681;SDS011;6405;59.208;18.216;2023-02-26T08:21:29;1.43;;;0.67;;
12681;SDS011;6405;59.208;18.216;2023-02-26T08:23:54;1.10;;;0.50;;
12681;SDS011;6405;59.208;18.216;2023-02-26T08:26:20;1.47;;;0.73;;
12681;SDS011;6405;59.208;18.216;2023-02-26T08:28:46;1.97;;;0.70;;
12681;SDS011;6405;59.208;18.216;2023-02-26T08:31:12;2.87;;;0.63;;
12681;SDS011;6405;59.208;18.216;2023-02-26T08:33:38;1.53;;;0.60;;
12681;SDS011;6405;59.208;18.216;2023-02-26T08:36:04;0.67;;;0.60;;
12681;SDS011;6405;59.208;18.216;2023-02-26T08:38:31;1.10;;;0.67;;
12681;SDS011;6405;59.208;18.216;2023-02-26T08:40:56;1.07;;;0.57;;
12681;SDS011;6405;59.208;18.216;2023-02-26T08:43:22;1.43;;;0.80;;
12681;SDS011;6405;59.208;18.216;2023-02-26T08:45:50;1.77;;;0.60;;
12681;SDS011;6405;59.208;18.216;2023-02-26T08:48:16;1.93;;;0.70;;
12681;SDS011;6405;59.208;18.216;2023-02-26T08:50:42;3.00;;;0.83;;
12681;SDS011;6405;59.208;18.216;2023-02-26T08:53:07;4.27;;;0.43;;
12681;SDS011;6405;59.208;18.216;2023-02-26T08:55:33;2.67;;;0.70;;
12681;SDS011;6405;59.208;18.216;2023-02-26T08:57:59;5.73;;;0.80;;
12681;SDS011;6405;59.208;18.216;2023-02-26T09:00:24;1.93;;;0.30;;
12681;SDS011;6405;59.208;18.216;2023-02-26T09:02:50;2.30;;;0.50;;
12681;SDS011;6405;59.208;18.216;2023-02-26T09:05:16;2.10;;;0.80;;
12681;SDS011;6405;59.208;18.216;2023-02-26T09:07:42;1.40;;;0.70;;
12681;SDS011;6405;59.208;18.216;2023-02-26T09:10:08;2.80;;;1.43;;
12681;SDS011;6405;59.208;18.216;2023-02-26T09:12:36;1.60;;;0.50;;
12681;SDS011;6405;59.208;18.216;2023-02-26T09:15:03;1.57;;;0.73;;
12681;SDS011;6405;59.208;18.216;2023-02-26T09:17:30;1.00;;;0.60;;
12681;SDS011;6405;59.208;18.216;2023-02-26T09:19:56;4.60;;;1.20;;
12681;SDS011;6405;59.208;18.216;2023-02-26T09:22:22;1.40;;;0.57;;
12681;SDS011;6405;59.208;18.216;2023-02-26T09:24:47;1.73;;;0.90;;
12681;SDS011;6405;59.208;18.216;2023-02-26T09:27:13;1.83;;;0.60;;
12681;SDS011;6405;59.208;18.216;2023-02-26T09:29:39;1.40;;;0.50;;
12681;SDS011;6405;59.208;18.216;2023-02-26T09:32:05;1.47;;;0.93;;
12681;SDS011;6405;59.208;18.216;2023-02-26T09:34:35;1.50;;;0.80;;
12681;SDS011;6405;59.208;18.216;2023-02-26T09:37:06;1.30;;;0.60;;
12681;SDS011;6405;59.208;18.216;2023-02-26T09:39:33;3.70;;;0.50;;
12681;SDS011;6405;59.208;18.216;2023-02-26T09:42:04;2.27;;;0.63;;
12681;SDS011;6405;59.208;18.216;2023-02-26T09:44:41;1.73;;;0.50;;
12681;SDS011;6405;59.208;18.216;2023-02-26T09:47:17;2.97;;;0.73;;
12681;SDS011;6405;59.208;18.216;2023-02-26T09:50:00;1.77;;;0.70;;
12681;SDS011;6405;59.208;18.216;2023-02-26T09:52:37;0.77;;;0.63;;
12681;SDS011;6405;59.208;18.216;2023-02-26T09:57:42;2.53;;;0.93;;
12681;SDS011;6405;59.208;18.216;2023-02-26T10:03:09;4.40;;;0.70;;
12681;SDS011;6405;59.208;18.216;2023-02-26T10:08:17;1.37;;;0.60;;
12681;SDS011;6405;59.208;18.216;2023-02-26T10:10:53;1.63;;;0.30;;
12681;SDS011;6405;59.208;18.216;2023-02-26T10:13:30;1.23;;;0.70;;
12681;SDS011;6405;59.208;18.216;2023-02-26T10:16:03;2.37;;;0.60;;
12681;SDS011;6405;59.208;18.216;2023-02-26T10:18:34;2.20;;;0.47;;
12681;SDS011;6405;59.208;18.216;2023-02-26T10:21:06;1.90;;;0.33;;
12681;SDS011;6405;59.208;18.216;2023-02-26T10:23:38;0.90;;;0.50;;
12681;SDS011;6405;59.208;18.216;2023-02-26T10:26:13;4.10;;;0.57;;
12681;SDS011;6405;59.208;18.216;2023-02-26T10:28:53;1.80;;;0.60;;
12681;SDS011;6405;59.208;18.216;2023-02-26T10:34:33;0.60;;;0.40;;
12681;SDS011;6405;59.208;18.216;2023-02-26T10:39:31;0.77;;;0.47;;
12681;SDS011;6405;59.208;18.216;2023-02-26T10:42:09;1.57;;;0.60;;
12681;SDS011;6405;59.208;18.216;2023-02-26T10:44:48;0.73;;;0.50;;
12681;SDS011;6405;59.208;18.216;2023-02-26T10:47:39;3.03;;;0.50;;
12681;SDS011;6405;59.208;18.216;2023-02-26T10:50:11;1.80;;;0.50;;
12681;SDS011;6405;59.208;18.216;2023-02-26T10:52:40;0.90;;;0.30;;
12681;SDS011;6405;59.208;18.216;2023-02-26T11:00:30;0.73;;;0.47;;
12681;SDS011;6405;59.208;18.216;2023-02-26T11:02:59;2.73;;;0.90;;
12681;SDS011;6405;59.208;18.216;2023-02-26T11:05:29;2.33;;;1.10;;
12681;SDS011;6405;59.208;18.216;2023-02-26T11:07:57;2.00;;;0.53;;
12681;SDS011;6405;59.208;18.216;2023-02-26T11:10:30;1.73;;;0.70;;
12681;SDS011;6405;59.208;18.216;2023-02-26T11:13:11;1.40;;;0.60;;
12681;SDS011;6405;59.208;18.216;2023-02-26T11:15:37;0.80;;;0.50;;
12681;SDS011;6405;59.208;18.216;2023-02-26T11:18:03;1.27;;;0.50;;
12681;SDS011;6405;59.208;18.216;2023-02-26T11:20:36;1.97;;;0.80;;
12681;SDS011;6405;59.208;18.216;2023-02-26T11:23:10;1.40;;;0.67;;
12681;SDS011;6405;59.208;18.216;2023-02-26T11:25:40;1.27;;;0.50;;
12681;SDS011;6405;59.208;18.216;2023-02-26T11:28:17;3.60;;;0.70;;
12681;SDS011;6405;59.208;18.216;2023-02-26T11:30:45;2.13;;;0.80;;
12681;SDS011;6405;59.208;18.216;2023-02-26T11:33:17;1.17;;;0.57;;
12681;SDS011;6405;59.208;18.216;2023-02-26T11:35:48;2.63;;;0.90;;
12681;SDS011;6405;59.208;18.216;2023-02-26T11:38:19;2.07;;;0.50;;
12681;SDS011;6405;59.208;18.216;2023-02-26T11:40:48;1.33;;;0.53;;
12681;SDS011;6405;59.208;18.216;2023-02-26T11:43:18;3.33;;;0.50;;
12681;SDS011;6405;59.208;18.216;2023-02-26T11:45:47;3.13;;;0.50;;
12681;SDS011;6405;59.208;18.216;2023-02-26T11:48:20;2.10;;;0.53;;
12681;SDS011;6405;59.208;18.216;2023-02-26T11:50:50;1.93;;;0.33;;
12681;SDS011;6405;59.208;18.216;2023-02-26T11:53:29;3.00;;;0.90;;
12681;SDS011;6405;59.208;18.216;2023-02-26T11:56:13;3.20;;;0.77;;
12681;SDS011;6405;59.208;18.216;2023-02-26T11:58:50;0.83;;;0.40;;
12681;SDS011;6405;59.208;18.216;2023-02-26T12:01:19;2.30;;;0.93;;
12681;SDS011;6405;59.208;18.216;2023-02-26T12:03:50;1.20;;;0.57;;
12681;SDS011;6405;59.208;18.216;2023-02-26T12:06:18;1.13;;;0.50;;
12681;SDS011;6405;59.208;18.216;2023-02-26T12:08:45;1.07;;;0.70;;
12681;SDS011;6405;59.208;18.216;2023-02-26T12:11:34;0.93;;;0.30;;
12681;SDS011;6405;59.208;18.216;2023-02-26T12:19:57;1.43;;;0.53;;
12681;SDS011;6405;59.208;18.216;2023-02-26T12:22:47;1.20;;;0.50;;
12681;SDS011;6405;59.208;18.216;2023-02-26T12:25:37;1.80;;;0.73;;
12681;SDS011;6405;59.208;18.216;2023-02-26T12:30:58;1.20;;;0.40;;
12681;SDS011;6405;59.208;18.216;2023-02-26T12:33:49;0.60;;;0.40;;
12681;SDS011;6405;59.208;18.216;2023-02-26T12:50:42;0.60;;;0.50;;
12681;SDS011;6405;59.208;18.216;2023-02-26T12:53:39;0.50;;;0.50;;
12681;SDS011;6405;59.208;18.216;2023-02-26T12:56:27;2.90;;;1.33;;
12681;SDS011;6405;59.208;18.216;2023-02-26T13:02:18;1.57;;;1.23;;
12681;SDS011;6405;59.208;18.216;2023-02-26T13:13:36;1.07;;;0.60;;
12681;SDS011;6405;59.208;18.216;2023-02-26T13:16:14;1.40;;;0.80;;
12681;SDS011;6405;59.208;18.216;2023-02-26T13:21:49;1.37;;;0.50;;
12681;SDS011;6405;59.208;18.216;2023-02-26T13:26:44;0.53;;;0.33;;
12681;SDS011;6405;59.208;18.216;2023-02-26T13:31:54;0.47;;;0.23;;
12681;SDS011;6405;59.208;18.216;2023-02-26T13:34:33;1.30;;;0.30;;
12681;SDS011;6405;59.208;18.216;2023-02-26T13:37:04;1.80;;;0.60;;
12681;SDS011;6405;59.208;18.216;2023-02-26T13:39:40;1.20;;;0.20;;
12681;SDS011;6405;59.208;18.216;2023-02-26T13:45:10;1.20;;;0.50;;
12681;SDS011;6405;59.208;18.216;2023-02-26T13:47:49;0.57;;;0.53;;
12681;SDS011;6405;59.208;18.216;2023-02-26T13:53:01;0.90;;;0.47;;
12681;SDS011;6405;59.208;18.216;2023-02-26T13:55:37;3.30;;;0.50;;
12681;SDS011;6405;59.208;18.216;2023-02-26T13:58:24;1.17;;;0.43;;
12681;SDS011;6405;59.208;18.216;2023-02-26T14:06:35;0.73;;;0.27;;
12681;SDS011;6405;59.208;18.216;2023-02-26T14:19:26;0.83;;;0.40;;
12681;SDS011;6405;59.208;18.216;2023-02-26T14:21:53;1.83;;;0.40;;
12681;SDS011;6405;59.208;18.216;2023-02-26T14:24:38;2.83;;;0.50;;
12681;SDS011;6405;59.208;18.216;2023-02-26T14:29:41;0.80;;;0.40;;
12681;SDS011;6405;59.208;18.216;2023-02-26T14:32:33;1.27;;;0.30;;
12681;SDS011;6405;59.208;18.216;2023-02-26T14:35:30;0.90;;;0.50;;
12681;SDS011;6405;59.208;18.216;2023-02-26T14:40:55;0.90;;;0.40;;
12681;SDS011;6405;59.208;18.216;2023-02-26T14:43:33;3.87;;;0.40;;
12681;SDS011;6405;59.208;18.216;2023-02-26T14:46:04;1.77;;;0.43;;
12681;SDS011;6405;59.208;18.216;2023-02-26T14:48:32;0.70;;;0.50;;
12681;SDS011;6405;59.208;18.216;2023-02-26T14:51:05;1.17;;;0.47;;
12681;SDS011;6405;59.208;18.216;2023-02-26T14:54:07;3.07;;;0.30;;
12681;SDS011;6405;59.208;18.216;2023-02-26T14:56:56;1.10;;;0.57;;
12681;SDS011;6405;59.208;18.216;2023-02-26T15:02:10;0.23;;;0.23;;
12681;SDS011;6405;59.208;18.216;2023-02-26T15:15:02;0.80;;;0.40;;
12681;SDS011;6405;59.208;18.216;2023-02-26T15:20:40;0.50;;;0.40;;
12681;SDS011;6405;59.208;18.216;2023-02-26T15:23:27;0.60;;;0.20;;
12681;SDS011;6405;59.208;18.216;2023-02-26T15:25:57;1.63;;;0.30;;
12681;SDS011;6405;59.208;18.216;2023-02-26T15:28:30;2.20;;;1.00;;
12681;SDS011;6405;59.208;18.216;2023-02-26T15:31:00;2.00;;;0.53;;
12681;SDS011;6405;59.208;18.216;2023-02-26T15:33:28;0.70;;;0.50;;
12681;SDS011;6405;59.208;18.216;2023-02-26T15:35:55;0.97;;;0.50;;
12681;SDS011;6405;59.208;18.216;2023-02-26T15:38:22;2.60;;;0.50;;
12681;SDS011;6405;59.208;18.216;2023-02-26T15:40:50;2.43;;;0.47;;
12681;SDS011;6405;59.208;18.216;2023-02-26T15:43:20;0.80;;;0.30;;
12681;SDS011;6405;59.208;18.216;2023-02-26T15:45:49;1.03;;;0.50;;
12681;SDS011;6405;59.208;18.216;2023-02-26T15:48:23;0.70;;;0.33;;
12681;SDS011;6405;59.208;18.216;2023-02-26T15:50:55;1.93;;;0.60;;
12681;SDS011;6405;59.208;18.216;2023-02-26T15:53:31;2.50;;;0.40;;
12681;SDS011;6405;59.208;18.216;2023-02-26T15:56:02;0.70;;;0.53;;
12681;SDS011;6405;59.208;18.216;2023-02-26T15:58:35;2.90;;;0.50;;
12681;SDS011;6405;59.208;18.216;2023-02-26T16:01:05;0.93;;;0.30;;
12681;SDS011;6405;59.208;18.216;2023-02-26T16:03:33;1.60;;;0.73;;
12681;SDS011;6405;59.208;18.216;2023-02-26T16:06:01;1.70;;;0.50;;
12681;SDS011;6405;59.208;18.216;2023-02-26T16:08:27;0.50;;;0.40;;
12681;SDS011;6405;59.208;18.216;2023-02-26T16:10:54;1.03;;;0.67;;
12681;SDS011;6405;59.208;18.216;2023-02-26T16:13:31;1.10;;;0.77;;
12681;SDS011;6405;59.208;18.216;2023-02-26T16:16:03;1.27;;;0.50;;
12681;SDS011;6405;59.208;18.216;2023-02-26T16:18:33;2.07;;;0.70;;
12681;SDS011;6405;59.208;18.216;2023-02-26T16:21:01;2.03;;;0.63;;
12681;SDS011;6405;59.208;18.216;2023-02-26T16:23:46;1.27;;;0.60;;
12681;SDS011;6405;59.208;18.216;2023-02-26T16:26:21;1.53;;;0.80;;
12681;SDS011;6405;59.208;18.216;2023-02-26T16:28:54;0.80;;;0.80;;
12681;SDS011;6405;59.208;18.216;2023-02-26T16:31:34;4.47;;;1.00;;
12681;SDS011;6405;59.208;18.216;2023-02-26T16:34:19;3.47;;;1.00;;
12681;SDS011;6405;59.208;18.216;2023-02-26T16:36:48;5.07;;;0.90;;
12681;SDS011;6405;59.208;18.216;2023-02-26T16:39:26;4.67;;;1.33;;
12681;SDS011;6405;59.208;18.216;2023-02-26T16:42:08;3.70;;;1.10;;
12681;SDS011;6405;59.208;18.216;2023-02-26T16:44:49;3.70;;;1.20;;
12681;SDS011;6405;59.208;18.216;2023-02-26T16:47:21;4.20;;;1.70;;
12681;SDS011;6405;59.208;18.216;2023-02-26T16:49:47;2.53;;;1.00;;
12681;SDS011;6405;59.208;18.216;2023-02-26T16:52:21;1.93;;;1.30;;
12681;SDS011;6405;59.208;18.216;2023-02-26T16:55:09;5.17;;;1.40;;
12681;SDS011;6405;59.208;18.216;2023-02-26T16:57:42;2.60;;;1.10;;
12681;SDS011;6405;59.208;18.216;2023-02-26T17:00:12;3.77;;;1.30;;
12681;SDS011;6405;59.208;18.216;2023-02-26T17:02:42;2.40;;;1.60;;
12681;SDS011;6405;59.208;18.216;2023-02-26T17:05:16;2.57;;;1.60;;
12681;SDS011;6405;59.208;18.216;2023-02-26T17:07:53;5.77;;;1.77;;
12681;SDS011;6405;59.208;18.216;2023-02-26T17:13:01;2.30;;;1.00;;
12681;SDS011;6405;59.208;18.216;2023-02-26T17:15:53;4.37;;;1.50;;
12681;SDS011;6405;59.208;18.216;2023-02-26T17:18:24;9.63;;;4.43;;
12681;SDS011;6405;59.208;18.216;2023-02-26T17:20:49;7.17;;;3.90;;
12681;SDS011;6405;59.208;18.216;2023-02-26T17:23:16;3.97;;;2.17;;
12681;SDS011;6405;59.208;18.216;2023-02-26T17:25:46;6.67;;;3.37;;
12681;SDS011;6405;59.208;18.216;2023-02-26T17:28:22;4.37;;;2.73;;
12681;SDS011;6405;59.208;18.216;2023-02-26T17:30:49;8.20;;;4.17;;
12681;SDS011;6405;59.208;18.216;2023-02-26T17:33:16;8.90;;;3.47;;
12681;SDS011;6405;59.208;18.216;2023-02-26T17:35:42;7.43;;;3.73;;